createdAt,value
2023-02-14T00:00:04.878Z,17.09
2023-02-14T00:01:04.930Z,17.06
2023-02-14T00:02:04.858Z,17.03
2023-02-14T00:03:03.912Z,17.07
2023-02-14T00:04:04.937Z,17.09
2023-02-14T00:05:04.858Z,17.09
2023-02-14T00:06:04.856Z,17.03
2023-02-14T00:07:04.852Z,17.12
2023-02-14T00:08:04.854Z,17.10
2023-02-14T00:09:04.826Z,17.05
2023-02-14T00:10:05.075Z,17.16
2023-02-14T00:11:03.826Z,17.10
2023-02-14T00:12:04.805Z,17.07
2023-02-14T00:13:04.799Z,17.06
2023-02-14T00:14:04.803Z,17.07
2023-02-14T00:15:04.791Z,17.07
2023-02-14T00:16:04.860Z,17.07
2023-02-14T00:17:04.808Z,17.09
2023-02-14T00:18:03.775Z,17.05
2023-02-14T00:19:04.808Z,17.06
2023-02-14T00:20:04.738Z,17.07
2023-02-14T00:21:04.750Z,17.07
2023-02-14T00:22:04.815Z,17.03
2023-02-14T00:23:04.730Z,17.07
2023-02-14T00:24:04.736Z,17.06
2023-02-14T00:25:04.708Z,17.03
2023-02-14T00:26:04.699Z,17.05
2023-02-14T00:27:04.711Z,17.09
2023-02-14T00:28:04.691Z,17.07
2023-02-14T00:29:04.683Z,17.07
2023-02-14T00:30:03.712Z,17.07
2023-02-14T00:31:03.795Z,17.09
2023-02-14T00:32:04.702Z,17.03
2023-02-14T00:33:05.480Z,17.02
2023-02-14T00:34:04.634Z,17.07
2023-02-14T00:35:04.641Z,17.05
2023-02-14T00:36:03.646Z,17.03
2023-02-14T00:37:04.648Z,17.05
2023-02-14T00:38:04.644Z,17.05
2023-02-14T00:39:04.621Z,17.02
2023-02-14T00:40:04.599Z,17.01
2023-02-14T00:41:04.581Z,17.02
2023-02-14T00:42:04.595Z,17.01
2023-02-14T00:43:04.586Z,17.01
2023-02-14T00:44:04.582Z,17.05
2023-02-14T00:45:05.585Z,17.05
2023-02-14T00:46:04.678Z,17.02
2023-02-14T00:47:04.566Z,17.05
2023-02-14T00:48:04.563Z,16.99
2023-02-14T00:49:04.558Z,17.05
2023-02-14T00:50:04.543Z,16.99
2023-02-14T00:51:04.533Z,17.03
2023-02-14T00:52:04.559Z,17.01
2023-02-14T00:53:04.530Z,17.02
2023-02-14T00:54:04.564Z,17.02
2023-02-14T00:55:03.538Z,16.97
2023-02-14T00:56:03.502Z,16.99
2023-02-14T00:57:04.559Z,16.99
2023-02-14T00:58:04.503Z,17.01
2023-02-14T00:59:03.496Z,16.97
2023-02-14T01:00:03.476Z,17.01
2023-02-14T01:01:04.501Z,16.97
2023-02-14T01:02:04.623Z,17.03
2023-02-14T01:03:03.470Z,17.01
2023-02-14T01:04:04.441Z,16.95
2023-02-14T01:05:04.439Z,16.99
2023-02-14T01:06:04.434Z,16.97
2023-02-14T01:07:04.435Z,16.99
2023-02-14T01:08:04.458Z,16.99
2023-02-14T01:09:04.442Z,17.02
2023-02-14T01:10:04.440Z,16.95
2023-02-14T01:11:04.412Z,16.99
2023-02-14T01:12:04.426Z,17.02
2023-02-14T01:13:04.456Z,16.99
2023-02-14T01:14:04.458Z,16.96
2023-02-14T01:15:03.494Z,16.97
2023-02-14T01:16:04.535Z,17.01
2023-02-14T01:17:03.542Z,16.97
2023-02-14T01:18:04.559Z,16.97
2023-02-14T01:19:04.581Z,16.96
2023-02-14T01:20:04.604Z,16.97
2023-02-14T01:21:04.626Z,17.03
2023-02-14T01:22:03.685Z,16.95
2023-02-14T01:23:04.664Z,16.97
2023-02-14T01:24:03.685Z,16.99
2023-02-14T01:25:03.702Z,16.97
2023-02-14T01:26:04.750Z,16.97
2023-02-14T01:27:04.760Z,16.97
2023-02-14T01:28:04.793Z,16.93
2023-02-14T01:29:04.869Z,16.95
2023-02-14T01:30:03.927Z,16.97
2023-02-14T01:31:03.886Z,16.95
2023-02-14T01:32:03.890Z,16.95
2023-02-14T01:33:04.894Z,16.97
2023-02-14T01:34:03.899Z,17.01
2023-02-14T01:35:04.925Z,16.97
2023-02-14T01:36:04.965Z,17.01
2023-02-14T01:37:04.956Z,16.97
2023-02-14T01:38:04.021Z,16.97
2023-02-14T01:39:05.028Z,16.96
2023-02-14T01:40:05.034Z,16.93
2023-02-14T01:41:05.082Z,16.96
2023-02-14T01:42:05.110Z,16.96
2023-02-14T01:43:04.096Z,16.96
2023-02-14T01:44:05.108Z,16.97
2023-02-14T01:45:04.105Z,16.99
2023-02-14T01:46:04.183Z,16.93
2023-02-14T01:47:05.129Z,16.93
2023-02-14T01:48:04.169Z,16.95
2023-02-14T01:49:04.159Z,16.89
2023-02-14T01:50:04.203Z,16.92
2023-02-14T01:51:04.188Z,16.90
2023-02-14T01:52:05.218Z,16.89
2023-02-14T01:53:04.233Z,17.01
2023-02-14T01:54:05.263Z,16.95
2023-02-14T01:55:05.284Z,16.92
2023-02-14T01:56:04.292Z,16.92
2023-02-14T01:57:05.336Z,16.93
2023-02-14T01:58:05.337Z,16.93
2023-02-14T01:59:04.317Z,16.93
2023-02-14T02:00:06.850Z,16.86
2023-02-14T02:01:05.376Z,16.90
2023-02-14T02:02:05.403Z,16.96
2023-02-14T02:03:05.341Z,16.92
2023-02-14T02:04:05.345Z,16.92
2023-02-14T02:05:05.341Z,16.92
2023-02-14T02:06:05.328Z,16.90
2023-02-14T02:07:05.289Z,16.90
2023-02-14T02:08:04.289Z,16.88
2023-02-14T02:09:05.284Z,16.93
2023-02-14T02:10:05.281Z,16.90
2023-02-14T02:11:05.284Z,16.88
2023-02-14T02:12:05.273Z,16.89
2023-02-14T02:13:05.257Z,16.90
2023-02-14T02:14:05.304Z,16.86
2023-02-14T02:15:04.234Z,16.88
2023-02-14T02:16:05.238Z,16.90
2023-02-14T02:17:05.288Z,16.90
2023-02-14T02:18:05.234Z,16.89
2023-02-14T02:19:05.211Z,16.86
2023-02-14T02:20:04.221Z,16.92
2023-02-14T02:21:05.207Z,16.86
2023-02-14T02:22:04.205Z,16.92
2023-02-14T02:23:05.185Z,16.86
2023-02-14T02:24:05.191Z,16.90
2023-02-14T02:25:05.169Z,16.88
2023-02-14T02:26:05.190Z,16.86
2023-02-14T02:27:05.809Z,16.82
2023-02-14T02:28:04.230Z,16.83
2023-02-14T02:29:05.196Z,16.85
2023-02-14T02:30:05.383Z,16.85
2023-02-14T02:31:05.376Z,16.88
2023-02-14T02:32:05.569Z,16.88
2023-02-14T02:33:04.272Z,16.86
2023-02-14T02:34:05.291Z,16.90
2023-02-14T02:35:05.262Z,16.86
2023-02-14T02:36:05.287Z,16.86
2023-02-14T02:37:05.291Z,16.93
2023-02-14T02:38:05.332Z,16.86
2023-02-14T02:39:05.333Z,16.90
2023-02-14T02:40:05.360Z,16.85
2023-02-14T02:41:04.418Z,16.88
2023-02-14T02:42:05.364Z,16.88
2023-02-14T02:43:05.373Z,16.86
2023-02-14T02:44:05.367Z,16.85
2023-02-14T02:45:05.382Z,16.86
2023-02-14T02:46:04.453Z,16.88
2023-02-14T02:47:05.388Z,16.88
2023-02-14T02:48:04.427Z,16.89
2023-02-14T02:49:05.445Z,16.88
2023-02-14T02:50:05.437Z,16.85
2023-02-14T02:51:05.433Z,16.85
2023-02-14T02:52:05.469Z,16.86
2023-02-14T02:53:05.456Z,16.85
2023-02-14T02:54:05.462Z,16.85
2023-02-14T02:55:04.498Z,16.86
2023-02-14T02:56:05.490Z,16.82
2023-02-14T02:57:05.502Z,16.88
2023-02-14T02:58:05.514Z,16.83
2023-02-14T02:59:04.518Z,16.86
2023-02-14T03:00:04.522Z,16.83
2023-02-14T03:01:05.552Z,16.82
2023-02-14T03:02:05.585Z,16.82
2023-02-14T03:03:05.578Z,16.83
2023-02-14T03:04:04.594Z,16.89
2023-02-14T03:05:04.623Z,16.82
2023-02-14T03:06:05.583Z,16.88
2023-02-14T03:07:05.575Z,16.86
2023-02-14T03:08:05.593Z,16.86
2023-02-14T03:09:05.600Z,16.88
2023-02-14T03:10:05.642Z,16.83
2023-02-14T03:11:05.636Z,16.80
2023-02-14T03:12:04.606Z,16.85
2023-02-14T03:13:05.616Z,16.83
2023-02-14T03:14:05.667Z,16.83
2023-02-14T03:15:04.676Z,16.85
2023-02-14T03:16:05.738Z,16.83
2023-02-14T03:17:05.665Z,16.85
2023-02-14T03:18:05.682Z,16.80
2023-02-14T03:19:05.710Z,16.82
2023-02-14T03:20:05.734Z,16.78
2023-02-14T03:21:05.700Z,16.79
2023-02-14T03:22:05.725Z,16.82
2023-02-14T03:23:04.718Z,16.83
2023-02-14T03:24:05.733Z,16.80
2023-02-14T03:25:04.740Z,16.85
2023-02-14T03:26:05.727Z,16.82
2023-02-14T03:27:05.743Z,16.82
2023-02-14T03:28:05.791Z,16.79
2023-02-14T03:29:05.764Z,16.78
2023-02-14T03:30:05.813Z,16.80
2023-02-14T03:31:05.889Z,16.75
2023-02-14T03:32:06.027Z,16.78
2023-02-14T03:33:05.811Z,16.80
2023-02-14T03:34:05.829Z,16.76
2023-02-14T03:35:05.814Z,16.79
2023-02-14T03:36:05.829Z,16.79
2023-02-14T03:37:05.934Z,16.79
2023-02-14T03:38:05.851Z,16.78
2023-02-14T03:39:05.856Z,16.78
2023-02-14T03:40:05.873Z,16.78
2023-02-14T03:41:05.858Z,16.80
2023-02-14T03:42:06.255Z,16.79
2023-02-14T03:43:05.897Z,16.79
2023-02-14T03:44:05.903Z,16.76
2023-02-14T03:45:05.955Z,16.76
2023-02-14T03:46:04.978Z,16.75
2023-02-14T03:47:05.930Z,16.83
2023-02-14T03:48:05.989Z,16.78
2023-02-14T03:49:05.958Z,16.80
2023-02-14T03:50:05.990Z,16.78
2023-02-14T03:51:04.977Z,16.79
2023-02-14T03:52:06.004Z,16.79
2023-02-14T03:53:05.981Z,16.74
2023-02-14T03:54:06.025Z,16.76
2023-02-14T03:55:06.085Z,16.79
2023-02-14T03:56:05.042Z,16.79
2023-02-14T03:57:06.056Z,16.80
2023-02-14T03:58:05.077Z,16.75
2023-02-14T03:59:05.079Z,16.76
2023-02-14T04:00:05.099Z,16.76
2023-02-14T04:01:06.095Z,16.75
2023-02-14T04:02:06.132Z,16.76
2023-02-14T04:03:06.149Z,16.72
2023-02-14T04:04:05.172Z,16.75
2023-02-14T04:05:06.193Z,16.76
2023-02-14T04:06:06.238Z,16.78
2023-02-14T04:07:05.207Z,16.76
2023-02-14T04:08:06.282Z,16.78
2023-02-14T04:09:06.269Z,16.76
2023-02-14T04:10:06.282Z,16.78
2023-02-14T04:11:06.284Z,16.72
2023-02-14T04:12:06.298Z,16.78
2023-02-14T04:13:06.360Z,16.76
2023-02-14T04:14:06.342Z,16.76
2023-02-14T04:15:06.322Z,16.79
2023-02-14T04:16:06.412Z,16.78
2023-02-14T04:17:05.374Z,16.82
2023-02-14T04:18:06.392Z,16.75
2023-02-14T04:19:06.388Z,16.76
2023-02-14T04:20:05.386Z,16.74
2023-02-14T04:21:06.401Z,16.75
2023-02-14T04:22:06.457Z,16.75
2023-02-14T04:23:06.453Z,16.74
2023-02-14T04:24:05.471Z,16.72
2023-02-14T04:25:06.448Z,16.72
2023-02-14T04:26:05.484Z,16.72
2023-02-14T04:27:06.485Z,16.69
2023-02-14T04:28:06.497Z,16.69
2023-02-14T04:29:06.509Z,16.72
2023-02-14T04:30:06.570Z,16.74
2023-02-14T04:31:06.718Z,16.71
2023-02-14T04:32:06.685Z,16.69
2023-02-14T04:33:06.579Z,16.76
2023-02-14T04:34:06.611Z,16.74
2023-02-14T04:35:05.612Z,16.76
2023-02-14T04:36:05.618Z,16.74
2023-02-14T04:37:06.643Z,16.69
2023-02-14T04:38:05.679Z,16.68
2023-02-14T04:39:06.680Z,16.74
2023-02-14T04:40:05.684Z,16.74
2023-02-14T04:41:06.746Z,16.76
2023-02-14T04:42:06.737Z,16.78
2023-02-14T04:43:06.748Z,16.74
2023-02-14T04:44:06.768Z,16.69
2023-02-14T04:45:06.819Z,16.75
2023-02-14T04:46:06.860Z,16.74
2023-02-14T04:47:06.824Z,16.72
2023-02-14T04:48:05.838Z,16.72
2023-02-14T04:49:06.884Z,16.71
2023-02-14T04:50:05.840Z,16.74
2023-02-14T04:51:06.929Z,16.74
2023-02-14T04:52:05.927Z,16.69
2023-02-14T04:53:06.962Z,16.69
2023-02-14T04:54:06.997Z,16.74
2023-02-14T04:55:06.966Z,16.75
2023-02-14T04:56:07.002Z,16.74
2023-02-14T04:57:07.006Z,16.71
2023-02-14T04:58:07.003Z,16.69
2023-02-14T04:59:07.018Z,16.69
2023-02-14T05:00:07.040Z,16.71
2023-02-14T05:01:07.146Z,16.65
2023-02-14T05:02:07.130Z,16.67
2023-02-14T05:03:06.098Z,16.67
2023-02-14T05:04:06.104Z,16.62
2023-02-14T05:05:06.161Z,16.65
2023-02-14T05:06:07.302Z,16.67
2023-02-14T05:07:07.223Z,16.69
2023-02-14T05:08:06.288Z,16.68
2023-02-14T05:09:07.272Z,16.72
2023-02-14T05:10:07.521Z,16.68
2023-02-14T05:11:06.325Z,16.69
2023-02-14T05:12:07.341Z,16.68
2023-02-14T05:13:06.353Z,16.65
2023-02-14T05:14:07.411Z,16.65
2023-02-14T05:15:07.425Z,16.65
2023-02-14T05:16:06.556Z,16.68
2023-02-14T05:17:07.489Z,16.67
2023-02-14T05:18:07.514Z,16.67
2023-02-14T05:19:07.565Z,16.69
2023-02-14T05:20:06.570Z,16.69
2023-02-14T05:21:06.643Z,16.69
2023-02-14T05:22:06.637Z,16.69
2023-02-14T05:23:07.671Z,16.68
2023-02-14T05:24:07.727Z,16.65
2023-02-14T05:25:07.706Z,16.72
2023-02-14T05:26:06.758Z,16.65
2023-02-14T05:27:06.794Z,16.65
2023-02-14T05:28:07.797Z,16.64
2023-02-14T05:29:06.812Z,16.64
2023-02-14T05:30:07.980Z,16.64
2023-02-14T05:31:06.914Z,16.61
2023-02-14T05:32:08.014Z,16.67
2023-02-14T05:33:07.912Z,16.65
2023-02-14T05:34:08.427Z,16.62
2023-02-14T05:35:07.966Z,16.64
2023-02-14T05:36:07.985Z,16.62
2023-02-14T05:37:08.017Z,16.64
2023-02-14T05:38:08.054Z,16.61
2023-02-14T05:39:07.049Z,16.65
2023-02-14T05:40:08.077Z,16.65
2023-02-14T05:41:08.081Z,16.65
2023-02-14T05:42:07.140Z,16.68
2023-02-14T05:43:08.167Z,16.64
2023-02-14T05:44:08.148Z,16.64
2023-02-14T05:45:08.170Z,16.62
2023-02-14T05:46:08.303Z,16.64
2023-02-14T05:47:08.201Z,16.61
2023-02-14T05:48:08.211Z,16.59
2023-02-14T05:49:08.254Z,16.62
2023-02-14T05:50:08.272Z,16.71
2023-02-14T05:51:08.294Z,16.64
2023-02-14T05:52:08.322Z,16.64
2023-02-14T05:53:08.330Z,16.67
2023-02-14T05:54:10.792Z,16.64
2023-02-14T05:55:08.356Z,16.59
2023-02-14T05:56:07.348Z,16.59
2023-02-14T05:57:08.326Z,16.59
2023-02-14T05:58:07.358Z,16.64
2023-02-14T05:59:07.312Z,16.57
2023-02-14T06:00:07.325Z,16.65
2023-02-14T06:01:08.285Z,16.64
2023-02-14T06:02:08.308Z,16.59
2023-02-14T06:03:08.320Z,16.62
2023-02-14T06:04:07.351Z,16.64
2023-02-14T06:05:08.281Z,16.68
2023-02-14T06:06:08.310Z,16.67
2023-02-14T06:07:08.255Z,16.62
2023-02-14T06:08:08.244Z,16.65
2023-02-14T06:09:08.268Z,16.59
2023-02-14T06:10:08.231Z,16.62
2023-02-14T06:11:07.242Z,16.68
2023-02-14T06:12:08.226Z,16.58
2023-02-14T06:13:08.219Z,16.61
2023-02-14T06:14:08.222Z,16.59
2023-02-14T06:15:08.205Z,16.58
2023-02-14T06:16:08.209Z,16.58
2023-02-14T06:17:07.189Z,16.61
2023-02-14T06:18:08.209Z,16.57
2023-02-14T06:19:07.167Z,16.58
2023-02-14T06:20:08.241Z,16.58
2023-02-14T06:21:08.181Z,16.58
2023-02-14T06:22:08.169Z,16.54
2023-02-14T06:23:08.166Z,16.57
2023-02-14T06:24:07.155Z,16.58
2023-02-14T06:25:08.194Z,16.59
2023-02-14T06:26:08.141Z,16.57
2023-02-14T06:27:08.152Z,16.57
2023-02-14T06:28:07.140Z,16.57
2023-02-14T06:29:07.113Z,16.58
2023-02-14T06:30:08.294Z,16.61
2023-02-14T06:31:07.202Z,16.54
2023-02-14T06:32:07.440Z,16.61
2023-02-14T06:33:08.122Z,16.54
2023-02-14T06:34:07.086Z,16.58
2023-02-14T06:35:08.091Z,16.59
2023-02-14T06:36:08.108Z,16.55
2023-02-14T06:37:08.124Z,16.59
2023-02-14T06:38:08.146Z,16.59
2023-02-14T06:39:07.155Z,16.55
2023-02-14T06:40:08.245Z,16.59
2023-02-14T06:41:07.353Z,16.57
2023-02-14T06:42:08.219Z,16.55
2023-02-14T06:43:08.286Z,16.59
2023-02-14T06:44:08.290Z,16.62
2023-02-14T06:45:08.345Z,16.54
2023-02-14T06:46:08.400Z,16.57
2023-02-14T06:47:08.362Z,16.51
2023-02-14T06:48:08.421Z,16.54
2023-02-14T06:49:08.424Z,16.55
2023-02-14T06:50:08.463Z,16.55
2023-02-14T06:51:08.471Z,16.55
2023-02-14T06:52:07.497Z,16.55
2023-02-14T06:53:08.551Z,16.52
2023-02-14T06:54:08.550Z,16.54
2023-02-14T06:55:08.638Z,16.55
2023-02-14T06:56:08.628Z,16.55
2023-02-14T06:57:08.725Z,16.52
2023-02-14T06:58:08.684Z,16.55
2023-02-14T06:59:07.738Z,16.55
2023-02-14T07:00:07.754Z,16.54
2023-02-14T07:01:08.828Z,16.54
2023-02-14T07:02:08.859Z,16.57
2023-02-14T07:03:08.861Z,16.52
2023-02-14T07:04:08.899Z,16.50
2023-02-14T07:05:08.921Z,16.55
2023-02-14T07:06:07.969Z,16.52
2023-02-14T07:07:08.958Z,16.52
2023-02-14T07:08:09.050Z,16.54
2023-02-14T07:09:09.036Z,16.52
2023-02-14T07:10:09.052Z,16.50
2023-02-14T07:11:09.072Z,16.54
2023-02-14T07:12:08.106Z,16.55
2023-02-14T07:13:09.187Z,16.48
2023-02-14T07:14:09.196Z,16.54
2023-02-14T07:15:08.215Z,16.54
2023-02-14T07:16:08.334Z,16.51
2023-02-14T07:17:08.365Z,16.57
2023-02-14T07:18:08.328Z,16.55
2023-02-14T07:19:08.353Z,16.52
2023-02-14T07:20:08.421Z,16.50
2023-02-14T07:21:09.427Z,16.54
2023-02-14T07:22:09.439Z,16.54
2023-02-14T07:23:09.483Z,16.54
2023-02-14T07:24:09.513Z,16.51
2023-02-14T07:25:09.571Z,16.55
2023-02-14T07:26:09.593Z,16.57
2023-02-14T07:27:08.634Z,16.55
2023-02-14T07:28:09.670Z,16.51
2023-02-14T07:29:09.688Z,16.52
2023-02-14T07:30:09.817Z,16.55
2023-02-14T07:31:09.913Z,16.61
2023-02-14T07:32:08.884Z,16.58
2023-02-14T07:33:09.853Z,16.52
2023-02-14T07:34:09.885Z,16.58
2023-02-14T07:35:09.872Z,16.58
2023-02-14T07:36:09.929Z,16.57
2023-02-14T07:37:09.933Z,16.55
2023-02-14T07:38:09.970Z,16.52
2023-02-14T07:39:09.974Z,16.62
2023-02-14T07:40:14.721Z,16.58
2023-02-14T07:41:10.016Z,16.55
2023-02-14T07:42:10.011Z,16.59
2023-02-14T07:43:10.026Z,16.61
2023-02-14T07:44:09.999Z,16.62
2023-02-14T07:45:21.216Z,16.58
2023-02-14T07:46:10.011Z,16.64
2023-02-14T07:47:09.978Z,16.58
2023-02-14T07:48:08.949Z,16.62
2023-02-14T07:49:08.958Z,16.65
2023-02-14T07:50:09.960Z,16.68
2023-02-14T07:51:09.955Z,16.59
2023-02-14T07:52:09.964Z,16.59
2023-02-14T07:53:08.936Z,16.61
2023-02-14T07:54:09.904Z,16.64
2023-02-14T07:55:09.902Z,16.65
2023-02-14T07:56:09.914Z,16.62
2023-02-14T07:57:08.894Z,16.61
2023-02-14T07:58:09.885Z,16.62
2023-02-14T07:59:09.908Z,16.65
2023-02-14T08:00:08.893Z,16.64
2023-02-14T08:01:09.873Z,16.65
2023-02-14T08:02:09.864Z,16.62
2023-02-14T08:03:09.858Z,16.65
2023-02-14T08:04:09.853Z,16.64
2023-02-14T08:05:09.973Z,16.65
2023-02-14T08:06:08.864Z,16.65
2023-02-14T08:07:09.866Z,16.67
2023-02-14T08:08:09.817Z,16.69
2023-02-14T08:09:08.815Z,16.68
2023-02-14T08:10:12.648Z,16.68
2023-02-14T08:11:09.830Z,16.69
2023-02-14T08:12:09.797Z,16.69
2023-02-14T08:13:08.794Z,16.74
2023-02-14T08:14:08.787Z,16.74
2023-02-14T08:15:09.775Z,16.74
2023-02-14T08:16:09.905Z,16.78
2023-02-14T08:17:09.748Z,16.80
2023-02-14T08:18:09.759Z,16.79
2023-02-14T08:19:09.733Z,16.79
2023-02-14T08:20:09.728Z,16.86
2023-02-14T08:21:09.777Z,16.83
2023-02-14T08:22:09.785Z,16.88
2023-02-14T08:23:09.705Z,16.88
2023-02-14T08:24:09.717Z,16.90
2023-02-14T08:25:09.702Z,16.86
2023-02-14T08:26:08.695Z,16.92
2023-02-14T08:27:09.692Z,16.92
2023-02-14T08:28:09.676Z,16.97
2023-02-14T08:29:08.663Z,16.97
2023-02-14T08:30:08.726Z,16.99
2023-02-14T08:31:09.716Z,16.99
2023-02-14T08:32:08.822Z,17.01
2023-02-14T08:33:09.703Z,16.97
2023-02-14T08:34:08.637Z,17.03
2023-02-14T08:35:08.623Z,16.99
2023-02-14T08:36:08.648Z,17.03
2023-02-14T08:37:09.683Z,17.01
2023-02-14T08:38:09.640Z,17.07
2023-02-14T08:39:09.606Z,17.07
2023-02-14T08:40:09.600Z,17.06
2023-02-14T08:41:09.548Z,17.10
2023-02-14T08:42:08.602Z,17.12
2023-02-14T08:43:09.581Z,17.15
2023-02-14T08:44:09.582Z,17.13
2023-02-14T08:45:09.562Z,17.19
2023-02-14T08:46:09.726Z,17.16
2023-02-14T08:47:09.647Z,17.16
2023-02-14T08:48:09.575Z,17.17
2023-02-14T08:49:09.538Z,17.15
2023-02-14T08:50:09.526Z,17.15
2023-02-14T08:51:09.530Z,17.19
2023-02-14T08:52:09.522Z,17.17
2023-02-14T08:53:09.522Z,17.19
2023-02-14T08:54:09.533Z,17.19
2023-02-14T08:55:09.522Z,17.23
2023-02-14T08:56:09.498Z,17.24
2023-02-14T08:57:08.488Z,17.27
2023-02-14T08:58:09.484Z,17.30
2023-02-14T08:59:08.578Z,17.22
2023-02-14T09:00:09.515Z,17.26
2023-02-14T09:01:09.640Z,17.27
2023-02-14T09:02:09.467Z,17.27
2023-02-14T09:03:09.461Z,17.27
2023-02-14T09:04:09.714Z,17.30
2023-02-14T09:05:08.437Z,17.34
2023-02-14T09:06:09.421Z,17.33
2023-02-14T09:07:09.429Z,17.36
2023-02-14T09:08:08.529Z,17.36
2023-02-14T09:09:08.476Z,17.36
2023-02-14T09:10:08.460Z,17.37
2023-02-14T09:11:08.403Z,17.37
2023-02-14T09:12:09.433Z,17.31
2023-02-14T09:13:09.388Z,17.37
2023-02-14T09:14:09.381Z,17.36
2023-02-14T09:15:08.424Z,17.38
2023-02-14T09:16:09.479Z,17.44
2023-02-14T09:17:09.425Z,17.41
2023-02-14T09:18:09.485Z,17.47
2023-02-14T09:19:08.375Z,17.44
2023-02-14T09:20:09.350Z,17.47
2023-02-14T09:21:08.387Z,17.44
2023-02-14T09:22:08.382Z,17.50
2023-02-14T09:23:09.325Z,17.47
2023-02-14T09:24:09.316Z,17.51
2023-02-14T09:25:09.303Z,17.54
2023-02-14T09:26:09.333Z,17.48
2023-02-14T09:27:09.358Z,17.51
2023-02-14T09:28:08.298Z,17.51
2023-02-14T09:29:09.294Z,17.54
2023-02-14T09:30:09.409Z,17.54
2023-02-14T09:31:08.355Z,17.55
2023-02-14T09:32:09.454Z,17.51
2023-02-14T09:33:09.277Z,17.55
2023-02-14T09:34:09.318Z,17.53
2023-02-14T09:35:09.337Z,17.51
2023-02-14T09:36:09.350Z,17.55
2023-02-14T09:37:09.399Z,17.58
2023-02-14T09:38:09.409Z,17.61
2023-02-14T09:39:09.686Z,17.60
2023-02-14T09:40:09.503Z,17.58
2023-02-14T09:41:09.530Z,17.64
2023-02-14T09:42:09.607Z,17.64
2023-02-14T09:43:09.602Z,17.62
2023-02-14T09:44:09.682Z,17.64
2023-02-14T09:45:09.718Z,17.62
2023-02-14T09:46:09.792Z,17.64
2023-02-14T09:47:08.840Z,17.62
2023-02-14T09:48:08.913Z,17.62
2023-02-14T09:49:10.015Z,17.68
2023-02-14T09:50:09.062Z,17.67
2023-02-14T09:51:10.092Z,17.64
2023-02-14T09:52:10.180Z,17.62
2023-02-14T09:53:10.205Z,17.70
2023-02-14T09:54:10.250Z,17.70
2023-02-14T09:55:10.332Z,17.70
2023-02-14T09:56:10.431Z,17.68
2023-02-14T09:57:10.441Z,17.67
2023-02-14T09:58:10.525Z,17.68
2023-02-14T09:59:10.564Z,17.68
2023-02-14T10:00:10.603Z,17.64
2023-02-14T10:01:09.730Z,17.70
2023-02-14T10:02:10.773Z,17.71
2023-02-14T10:03:09.819Z,17.70
2023-02-14T10:04:10.831Z,17.70
2023-02-14T10:05:10.908Z,17.72
2023-02-14T10:06:10.945Z,17.80
2023-02-14T10:07:11.014Z,17.80
2023-02-14T10:08:11.058Z,17.80
2023-02-14T10:09:11.126Z,17.80
2023-02-14T10:10:11.166Z,17.84
2023-02-14T10:11:10.240Z,17.82
2023-02-14T10:12:10.442Z,17.82
2023-02-14T10:13:11.561Z,17.84
2023-02-14T10:14:11.445Z,17.84
2023-02-14T10:15:11.467Z,17.86
2023-02-14T10:16:11.566Z,17.89
2023-02-14T10:17:11.528Z,17.86
2023-02-14T10:18:11.632Z,17.89
2023-02-14T10:19:11.698Z,17.91
2023-02-14T10:20:10.681Z,17.89
2023-02-14T10:21:11.720Z,17.91
2023-02-14T10:22:11.800Z,17.93
2023-02-14T10:23:11.864Z,17.92
2023-02-14T10:24:11.868Z,17.96
2023-02-14T10:25:11.990Z,17.91
2023-02-14T10:26:11.992Z,17.93
2023-02-14T10:27:12.046Z,17.95
2023-02-14T10:28:11.071Z,17.96
2023-02-14T10:29:12.114Z,17.96
2023-02-14T10:30:11.266Z,17.99
2023-02-14T10:31:12.285Z,17.99
2023-02-14T10:32:12.283Z,18.01
2023-02-14T10:33:11.265Z,18.03
2023-02-14T10:34:12.330Z,18.03
2023-02-14T10:35:12.359Z,18.01
2023-02-14T10:36:12.482Z,18.01
2023-02-14T10:37:12.528Z,18.03
2023-02-14T10:38:11.497Z,18.05
2023-02-14T10:39:12.580Z,18.03
2023-02-14T10:40:12.623Z,18.05
2023-02-14T10:41:12.644Z,18.02
2023-02-14T10:42:12.685Z,18.06
2023-02-14T10:43:12.810Z,18.06
2023-02-14T10:44:12.784Z,18.05
2023-02-14T10:45:12.828Z,18.05
2023-02-14T10:46:12.957Z,18.06
2023-02-14T10:47:11.914Z,18.06
2023-02-14T10:48:12.982Z,18.08
2023-02-14T10:49:12.016Z,18.08
2023-02-14T10:50:13.043Z,18.09
2023-02-14T10:51:12.071Z,18.10
2023-02-14T10:52:13.129Z,18.09
2023-02-14T10:53:13.140Z,18.13
2023-02-14T10:54:13.219Z,18.09
2023-02-14T10:55:13.898Z,18.08
2023-02-14T10:56:13.299Z,18.06
2023-02-14T10:57:13.263Z,18.09
2023-02-14T10:58:13.196Z,18.09
2023-02-14T10:59:13.237Z,18.12
2023-02-14T11:00:13.180Z,18.10
2023-02-14T11:01:12.355Z,18.15
2023-02-14T11:02:13.177Z,18.12
2023-02-14T11:03:12.229Z,18.13
2023-02-14T11:04:13.188Z,18.12
2023-02-14T11:05:13.164Z,18.13
2023-02-14T11:06:13.174Z,18.10
2023-02-14T11:07:12.143Z,18.12
2023-02-14T11:08:13.155Z,18.13
2023-02-14T11:09:12.152Z,18.16
2023-02-14T11:10:13.103Z,18.13
2023-02-14T11:11:13.175Z,18.16
2023-02-14T11:12:13.093Z,18.16
2023-02-14T11:13:13.111Z,18.15
2023-02-14T11:14:13.095Z,18.13
2023-02-14T11:15:12.097Z,18.17
2023-02-14T11:16:13.075Z,18.15
2023-02-14T11:17:13.065Z,18.17
2023-02-14T11:18:13.078Z,18.20
2023-02-14T11:19:12.042Z,18.19
2023-02-14T11:20:13.071Z,18.20
2023-02-14T11:21:13.034Z,18.17
2023-02-14T11:22:13.012Z,18.15
2023-02-14T11:23:13.051Z,18.17
2023-02-14T11:24:13.023Z,18.17
2023-02-14T11:25:13.009Z,18.22
2023-02-14T11:26:12.996Z,18.19
2023-02-14T11:27:13.015Z,18.20
2023-02-14T11:28:12.974Z,18.20
2023-02-14T11:29:11.980Z,18.22
2023-02-14T11:30:13.038Z,18.17
2023-02-14T11:31:13.126Z,18.22
2023-02-14T11:32:12.946Z,18.19
2023-02-14T11:33:12.984Z,18.20
2023-02-14T11:34:13.016Z,18.17
2023-02-14T11:35:13.023Z,18.20
2023-02-14T11:36:12.057Z,18.23
2023-02-14T11:37:13.078Z,18.19
2023-02-14T11:38:13.096Z,18.25
2023-02-14T11:39:12.111Z,18.23
2023-02-14T11:40:13.141Z,18.25
2023-02-14T11:41:12.195Z,18.19
2023-02-14T11:42:13.217Z,18.19
2023-02-14T11:43:14.798Z,18.20
2023-02-14T11:44:12.232Z,18.22
2023-02-14T11:45:13.197Z,18.19
2023-02-14T11:46:13.308Z,18.22
2023-02-14T11:47:13.211Z,18.25
2023-02-14T11:48:13.195Z,18.23
2023-02-14T11:49:12.183Z,18.22
2023-02-14T11:50:13.211Z,18.25
2023-02-14T11:51:13.196Z,18.25
2023-02-14T11:52:13.201Z,18.23
2023-02-14T11:53:13.177Z,18.23
2023-02-14T11:54:13.169Z,18.28
2023-02-14T11:55:13.140Z,18.25
2023-02-14T11:56:13.141Z,18.28
2023-02-14T11:57:12.137Z,18.26
2023-02-14T11:58:13.138Z,18.29
2023-02-14T11:59:13.131Z,18.28
2023-02-14T12:00:13.122Z,18.28
2023-02-14T12:01:13.117Z,18.26
2023-02-14T12:02:13.177Z,18.23
2023-02-14T12:03:13.184Z,18.30
2023-02-14T12:04:13.083Z,18.25
2023-02-14T12:05:13.087Z,18.28
2023-02-14T12:06:13.050Z,18.25
2023-02-14T12:07:12.120Z,18.32
2023-02-14T12:08:13.066Z,18.28
2023-02-14T12:09:13.063Z,18.29
2023-02-14T12:10:13.032Z,18.32
2023-02-14T12:11:13.072Z,18.30
2023-02-14T12:12:13.106Z,18.32
2023-02-14T12:13:12.088Z,18.28
2023-02-14T12:14:13.016Z,18.33
2023-02-14T12:15:13.020Z,18.32
2023-02-14T12:16:13.055Z,18.29
2023-02-14T12:17:12.036Z,18.30
2023-02-14T12:18:11.999Z,18.32
2023-02-14T12:19:12.987Z,18.30
2023-02-14T12:20:12.974Z,18.33
2023-02-14T12:21:11.954Z,18.32
2023-02-14T12:22:13.005Z,18.32
2023-02-14T12:23:13.011Z,18.32
2023-02-14T12:24:12.968Z,18.33
2023-02-14T12:25:12.951Z,18.32
2023-02-14T12:26:12.937Z,18.32
2023-02-14T12:27:12.926Z,18.33
2023-02-14T12:28:11.958Z,18.32
2023-02-14T12:29:12.907Z,18.35
2023-02-14T12:30:13.061Z,18.30
2023-02-14T12:31:13.048Z,18.35
2023-02-14T12:32:13.020Z,18.36
2023-02-14T12:33:12.878Z,18.36
2023-02-14T12:34:11.872Z,18.35
2023-02-14T12:35:12.920Z,18.36
2023-02-14T12:36:12.867Z,18.36
2023-02-14T12:37:12.886Z,18.36
2023-02-14T12:38:11.913Z,18.33
2023-02-14T12:39:11.972Z,18.36
2023-02-14T12:40:11.956Z,18.36
2023-02-14T12:41:12.986Z,18.35
2023-02-14T12:42:13.027Z,18.33
2023-02-14T12:43:12.016Z,18.36
2023-02-14T12:44:13.029Z,18.36
2023-02-14T12:45:13.039Z,18.32
2023-02-14T12:46:13.181Z,18.33
2023-02-14T12:47:13.082Z,18.37
2023-02-14T12:48:15.141Z,18.35
2023-02-14T12:49:12.119Z,18.35
2023-02-14T12:50:13.122Z,18.36
2023-02-14T12:51:12.096Z,18.35
2023-02-14T12:52:13.082Z,18.36